Time;durP1;ratioP1;P1;durP2;ratioP2;P2;SDS_P1;SDS_P2;PMS_P1;PMS_P2;Temp;Humidity;BMP_temperature;BMP_pressure;BME280_temperature;BME280_humidity;BME280_pressure;Samples;Min_cycle;Max_cycle;Signal;HPM_P1;HPM_P2
2022/11/22 13:41:30;;;;;;;6.30;3.92;;;10.50;99.90;;;;;;4968165;28;20402;-66
2022/11/22 13:43:58;;;;;;;4.25;3.53;;;10.60;99.90;;;;;;4968922;28;20054;-69
2022/11/22 13:46:51;;;;;;;4.35;3.72;;;11.00;99.90;;;;;;4968592;28;20034;-68
2022/11/22 13:49:31;;;;;;;8.15;4.90;;;11.40;99.90;;;;;;4968978;28;20023;-65
2022/11/22 13:51:58;;;;;;;5.97;4.70;;;11.60;99.90;;;;;;4967979;28;20023;-67
2022/11/22 13:54:36;;;;;;;4.38;3.75;;;11.80;99.90;;;;;;4968300;28;20635;-65
2022/11/22 13:57:21;;;;;;;5.22;3.60;;;12.10;99.90;;;;;;4968784;28;20027;-64
2022/11/22 14:00:13;;;;;;;5.38;4.07;;;12.30;97.10;;;;;;4966030;28;20489;-63
2022/11/22 14:02:50;;;;;;;7.38;4.55;;;12.50;99.70;;;;;;4968688;28;20093;-62
2022/11/22 14:05:31;;;;;;;5.55;4.18;;;12.60;94.50;;;;;;4966351;28;20027;-66
2022/11/22 14:07:59;;;;;;;4.75;3.55;;;12.80;97.60;;;;;;4967921;28;20022;-67
2022/11/22 14:11:12;;;;;;;4.90;3.95;;;12.90;94.20;;;;;;4967901;28;20023;-67
2022/11/22 14:14:06;;;;;;;4.85;3.50;;;12.90;94.90;;;;;;4985455;28;20022;-67
2022/11/22 14:16:53;;;;;;;4.22;3.28;;;12.90;95.40;;;;;;4983282;28;20044;-65
2022/11/22 14:19:51;;;;;;;4.10;2.70;;;13.00;93.90;;;;;;4953523;28;20066;-64
2022/11/22 14:22:30;;;;;;;4.43;2.88;;;13.00;94.20;;;;;;4949816;29;20031;-68
2022/11/22 14:25:31;;;;;;;3.28;2.70;;;13.10;91.10;;;;;;4950232;28;20015;-66
2022/11/22 14:28:30;;;;;;;4.85;3.10;;;13.10;94.20;;;;;;4956336;28;20110;-64
2022/11/22 14:30:57;;;;;;;3.67;2.92;;;13.00;93.90;;;;;;4951738;29;20019;-66
2022/11/22 14:33:27;;;;;;;4.32;3.05;;;12.90;92.90;;;;;;4951771;28;20024;-68
2022/11/22 14:36:05;;;;;;;5.85;3.95;;;12.90;92.70;;;;;;4951889;29;20030;-67
2022/11/22 14:38:38;;;;;;;8.48;3.75;;;12.70;92.60;;;;;;4951644;29;20098;-67
2022/11/22 14:41:25;;;;;;;4.25;3.83;;;12.60;95.20;;;;;;4971161;28;20034;-67
2022/11/22 14:44:17;;;;;;;4.63;3.20;;;12.50;95.40;;;;;;4971082;28;20030;-65
2022/11/22 14:46:55;;;;;;;6.75;3.80;;;12.50;97.10;;;;;;4970859;28;20023;-63
2022/11/22 14:49:30;;;;;;;3.85;3.45;;;12.40;97.00;;;;;;4970893;28;20051;-67
2022/11/22 14:51:57;;;;;;;4.88;3.63;;;12.30;97.50;;;;;;4959817;28;20028;-64
2022/11/22 14:54:28;;;;;;;4.93;4.20;;;12.20;97.90;;;;;;4957932;29;20027;-66
2022/11/22 14:56:57;;;;;;;5.47;4.05;;;12.20;99.90;;;;;;4958076;29;20030;-64
2022/11/22 14:59:34;;;;;;;7.50;5.15;;;12.10;97.50;;;;;;4957710;29;20072;-64
2022/11/22 15:02:21;;;;;;;8.05;5.53;;;12.00;99.60;;;;;;4957769;29;20023;-66
2022/11/22 15:05:21;;;;;;;6.78;5.38;;;12.00;99.80;;;;;;4971228;28;20024;-61
2022/11/22 15:07:55;;;;;;;7.63;6.05;;;12.00;99.90;;;;;;4957498;29;20024;-61
2022/11/22 15:11:02;;;;;;;8.80;5.80;;;11.90;99.90;;;;;;4957685;29;20030;-68
2022/11/22 15:13:36;;;;;;;9.18;6.90;;;11.90;99.90;;;;;;4957083;28;20035;-69
2022/11/22 15:16:20;;;;;;;8.93;7.28;;;11.90;99.90;;;;;;4957607;29;20034;-64
2022/11/22 15:18:47;;;;;;;;;;;11.80;99.90;;;;;;4957903;28;20023;-66
2022/11/22 15:21:26;;;;;;;11.13;7.95;;;11.80;99.90;;;;;;4957373;29;19913;-61
2022/11/22 15:23:55;;;;;;;11.65;8.07;;;11.70;99.90;;;;;;4957582;29;20019;-61
2022/11/22 15:26:23;;;;;;;11.95;8.18;;;11.80;99.90;;;;;;4957406;29;20385;-65
2022/11/22 15:28:54;;;;;;;11.05;8.70;;;11.80;99.90;;;;;;4957231;29;20027;-64
2022/11/22 15:31:23;;;;;;;13.10;9.52;;;11.80;99.90;;;;;;4956095;29;20122;-63
2022/11/22 15:33:53;;;;;;;13.32;8.88;;;11.80;99.90;;;;;;4957352;28;20090;-65
2022/11/22 15:36:28;;;;;;;14.80;10.57;;;11.80;99.90;;;;;;4956935;29;20028;-66
2022/11/22 15:38:56;;;;;;;14.32;9.65;;;11.80;99.90;;;;;;4956972;29;20044;-60
2022/11/22 15:41:30;;;;;;;11.77;8.63;;;11.80;99.90;;;;;;4957151;29;20389;-64
2022/11/22 15:43:59;;;;;;;11.75;8.68;;;11.80;99.90;;;;;;4957190;29;20023;-63
2022/11/22 15:46:26;;;;;;;9.25;7.45;;;11.80;99.90;;;;;;4957094;29;20015;-63
2022/11/22 15:48:56;;;;;;;10.00;7.15;;;11.80;99.90;;;;;;4956797;29;20023;-62
2022/11/22 15:51:30;;;;;;;8.93;7.15;;;11.80;99.90;;;;;;4956910;29;20051;-66
2022/11/22 15:54:04;;;;;;;11.25;7.82;;;11.80;99.90;;;;;;4956967;29;20023;-66
2022/11/22 15:56:40;;;;;;;11.82;7.65;;;11.80;99.90;;;;;;4956819;29;20110;-66
2022/11/22 15:59:19;;;;;;;7.82;6.22;;;11.90;99.90;;;;;;4956808;29;20031;-61
2022/11/22 16:01:45;;;;;;;7.65;5.88;;;11.80;99.90;;;;;;4956667;28;20047;-63
2022/11/22 16:04:30;;;;;;;6.95;6.10;;;11.80;99.90;;;;;;4955776;29;20056;-66
2022/11/22 16:06:58;;;;;;;8.02;5.95;;;11.70;99.90;;;;;;4956602;29;20030;-65
2022/11/22 16:09:38;;;;;;;6.43;5.65;;;11.70;99.90;;;;;;4956760;29;20483;-69
2022/11/22 16:12:23;;;;;;;8.38;5.70;;;11.70;99.90;;;;;;4956482;29;20030;-63
2022/11/22 16:14:49;;;;;;;7.50;5.28;;;11.70;99.90;;;;;;4955278;28;20031;-61
2022/11/22 16:17:29;;;;;;;5.90;4.93;;;11.70;99.90;;;;;;4956404;29;20031;-63
2022/11/22 16:20:23;;;;;;;8.60;6.47;;;11.70;99.90;;;;;;4956256;29;20034;-68
2022/11/22 16:23:07;;;;;;;7.25;5.65;;;11.70;99.90;;;;;;4956269;29;20039;-63
2022/11/22 16:25:35;;;;;;;6.97;5.50;;;11.60;99.90;;;;;;4956328;29;20078;-62
2022/11/22 16:28:05;;;;;;;8.48;7.05;;;11.70;99.90;;;;;;4956261;29;20020;-67
2022/11/22 16:30:41;;;;;;;10.23;8.07;;;11.60;99.90;;;;;;4956287;28;20039;-64
2022/11/22 16:33:09;;;;;;;11.00;8.30;;;11.60;99.90;;;;;;4955980;29;20059;-69
2022/11/22 16:35:35;;;;;;;9.30;7.93;;;11.70;99.90;;;;;;4956096;29;20023;-65
2022/11/22 16:38:01;;;;;;;9.52;7.68;;;11.70;99.90;;;;;;4956147;29;20035;-67
2022/11/22 16:40:27;;;;;;;7.88;6.70;;;11.70;99.90;;;;;;4954968;29;20494;-67
2022/11/22 16:42:52;;;;;;;7.30;6.15;;;11.70;99.90;;;;;;4955454;29;20147;-64
2022/11/22 16:45:20;;;;;;;6.90;5.72;;;11.70;99.90;;;;;;4955963;29;20110;-64
2022/11/22 16:47:46;;;;;;;6.45;5.00;;;11.70;99.90;;;;;;4955635;29;20023;-64
2022/11/22 16:50:13;;;;;;;5.85;4.90;;;11.70;99.90;;;;;;4954641;28;20046;-61
2022/11/22 16:52:43;;;;;;;5.88;5.28;;;11.70;99.90;;;;;;4955815;29;20023;-64
2022/11/22 16:55:14;;;;;;;7.82;6.18;;;11.70;99.90;;;;;;4955803;29;20027;-64
2022/11/22 16:57:40;;;;;;;8.57;6.40;;;11.70;99.90;;;;;;4955736;29;20019;-69
2022/11/22 17:00:07;;;;;;;8.07;6.55;;;11.70;99.90;;;;;;4955844;29;20070;-63
2022/11/22 17:02:33;;;;;;;8.02;6.45;;;11.70;99.90;;;;;;4955366;29;20031;-65
2022/11/22 17:04:59;;;;;;;7.55;6.05;;;11.60;99.90;;;;;;4955809;29;20401;-63
2022/11/22 17:07:26;;;;;;;7.50;5.90;;;11.70;99.90;;;;;;4955717;29;20023;-66
2022/11/22 17:09:51;;;;;;;7.75;6.03;;;11.70;99.90;;;;;;4955592;29;20106;-64
2022/11/22 17:12:23;;;;;;;7.43;6.05;;;11.70;99.90;;;;;;4955835;29;20477;-64
2022/11/22 17:14:50;;;;;;;7.47;5.88;;;11.70;99.90;;;;;;4955234;28;20038;-65
2022/11/22 17:17:19;;;;;;;6.40;5.63;;;11.70;99.90;;;;;;4954058;29;20054;-63
2022/11/22 17:19:46;;;;;;;8.13;5.53;;;11.60;99.90;;;;;;4955414;28;20040;-68
2022/11/22 17:22:13;;;;;;;8.43;5.30;;;11.70;99.90;;;;;;4954250;29;20030;-62
2022/11/22 17:24:39;;;;;;;7.93;5.97;;;11.70;99.90;;;;;;4955308;29;20027;-64
2022/11/22 17:27:04;;;;;;;6.75;5.20;;;11.70;99.90;;;;;;4955322;29;20019;-65
2022/11/22 17:29:30;;;;;;;8.55;5.13;;;11.70;99.90;;;;;;4954064;28;20035;-66
2022/11/22 17:31:56;;;;;;;6.60;5.10;;;11.70;99.90;;;;;;4955090;29;20047;-64
2022/11/22 17:34:21;;;;;;;5.88;4.97;;;11.70;99.90;;;;;;4955298;29;20366;-67
2022/11/22 17:36:47;;;;;;;5.45;4.93;;;11.70;99.90;;;;;;4955313;29;20051;-66
2022/11/22 17:39:13;;;;;;;6.47;5.20;;;11.60;99.90;;;;;;4954874;29;20094;-64
2022/11/22 17:41:39;;;;;;;8.13;6.38;;;11.60;99.90;;;;;;4955137;29;20031;-64
2022/11/22 17:44:05;;;;;;;6.93;5.38;;;11.50;99.90;;;;;;4955321;29;20019;-64
2022/11/22 17:46:33;;;;;;;10.23;7.28;;;11.50;99.90;;;;;;4955018;29;20098;-71
2022/11/22 17:49:00;;;;;;;13.30;9.32;;;11.50;99.90;;;;;;4955131;29;20031;-66
2022/11/22 17:51:27;;;;;;;10.10;7.63;;;11.50;99.90;;;;;;4955270;29;20019;-67
2022/11/22 17:53:54;;;;;;;10.73;8.20;;;11.50;99.90;;;;;;4955105;29;20358;-69
2022/11/22 17:56:20;;;;;;;10.18;7.68;;;11.60;99.90;;;;;;4955006;29;20031;-67
2022/11/22 17:58:45;;;;;;;7.47;6.47;;;11.60;99.90;;;;;;4954995;29;20436;-67
2022/11/22 18:01:14;;;;;;;9.80;6.35;;;11.60;99.90;;;;;;4954910;29;20054;-63
2022/11/22 18:03:41;;;;;;;6.90;5.70;;;11.70;99.90;;;;;;4954922;29;20466;-70
2022/11/22 18:06:08;;;;;;;6.80;5.80;;;11.70;99.90;;;;;;4955179;29;20090;-71
2022/11/22 18:08:34;;;;;;;10.70;7.70;;;11.70;99.90;;;;;;4955042;29;20035;-64
2022/11/22 18:11:00;;;;;;;8.30;6.07;;;11.70;99.90;;;;;;4954797;29;20031;-64
2022/11/22 18:13:32;;;;;;;9.85;7.15;;;11.70;99.90;;;;;;4954915;29;20031;-67
2022/11/22 18:16:00;;;;;;;12.80;7.30;;;11.70;99.90;;;;;;4954872;29;20115;-68
2022/11/22 18:18:26;;;;;;;8.00;6.32;;;11.70;99.90;;;;;;4954755;29;20019;-68
2022/11/22 18:20:53;;;;;;;8.68;6.95;;;11.60;99.90;;;;;;4954893;29;20115;-62
2022/11/22 18:23:20;;;;;;;12.20;7.15;;;11.70;99.90;;;;;;4953623;28;20034;-66
2022/11/22 18:25:46;;;;;;;9.57;6.63;;;11.70;99.90;;;;;;4954970;28;20493;-64
2022/11/22 18:28:12;;;;;;;10.45;7.07;;;11.70;99.90;;;;;;4957082;29;20073;-65
2022/11/22 18:30:40;;;;;;;8.27;6.60;;;11.70;99.90;;;;;;4958219;29;20035;-63
2022/11/22 18:33:06;;;;;;;9.60;6.78;;;11.60;99.90;;;;;;4955627;29;20536;-66
2022/11/22 18:35:32;;;;;;;7.78;6.95;;;11.70;99.90;;;;;;4956972;29;20111;-66
2022/11/22 18:37:57;;;;;;;8.40;6.95;;;11.70;99.90;;;;;;4957165;28;20067;-64
2022/11/22 18:40:23;;;;;;;9.45;6.85;;;11.60;99.90;;;;;;4957325;29;20043;-65
2022/11/22 18:42:50;;;;;;;6.43;5.65;;;11.60;99.90;;;;;;4957805;29;20031;-68
2022/11/22 18:45:17;;;;;;;6.72;5.90;;;11.60;99.90;;;;;;4957606;29;20051;-66
2022/11/22 18:47:43;;;;;;;8.15;6.68;;;11.60;99.90;;;;;;4957689;29;20023;-60
2022/11/22 18:50:10;;;;;;;8.55;6.97;;;11.70;99.90;;;;;;4958046;29;20027;-64
2022/11/22 18:52:39;;;;;;;10.02;7.40;;;11.70;99.90;;;;;;4958035;29;20031;-64
2022/11/22 18:55:06;;;;;;;9.73;7.10;;;11.60;99.90;;;;;;4957966;29;20059;-64
2022/11/22 18:57:32;;;;;;;8.32;6.50;;;11.60;99.90;;;;;;4957876;29;20031;-65
2022/11/22 18:59:58;;;;;;;9.05;7.18;;;11.70;99.90;;;;;;4972696;28;20060;-67
2022/11/22 19:02:26;;;;;;;6.57;5.80;;;11.60;99.90;;;;;;4957855;29;20066;-64
2022/11/22 19:04:52;;;;;;;6.38;5.30;;;11.60;99.90;;;;;;4957886;29;20098;-63
2022/11/22 19:07:22;;;;;;;6.93;5.25;;;11.60;99.90;;;;;;4958095;29;20027;-68
2022/11/22 19:09:47;;;;;;;9.00;7.15;;;11.60;99.90;;;;;;4957635;28;20466;-67
2022/11/22 19:12:14;;;;;;;18.23;15.38;;;11.60;99.90;;;;;;4957504;29;20034;-64
2022/11/22 19:14:39;;;;;;;14.77;9.93;;;11.50;99.90;;;;;;4957525;29;20034;-67
2022/11/22 19:17:05;;;;;;;16.85;12.45;;;11.50;99.90;;;;;;4957558;28;20090;-64
2022/11/22 19:19:31;;;;;;;15.02;10.27;;;11.50;99.90;;;;;;4957383;29;20066;-69
2022/11/22 19:21:58;;;;;;;13.70;9.70;;;11.40;99.90;;;;;;4957650;29;20023;-69
2022/11/22 19:24:23;;;;;;;11.50;8.70;;;11.40;99.90;;;;;;4957484;29;20106;-67
2022/11/22 19:26:49;;;;;;;16.38;10.27;;;11.40;99.90;;;;;;4957173;29;20115;-65
2022/11/22 19:29:15;;;;;;;15.57;10.82;;;11.40;99.90;;;;;;4957399;29;20099;-64
2022/11/22 19:31:41;;;;;;;14.45;10.82;;;11.40;99.90;;;;;;4957525;29;20019;-66
2022/11/22 19:34:07;;;;;;;14.70;10.70;;;11.50;99.90;;;;;;4955952;29;20035;-65
2022/11/22 19:36:35;;;;;;;11.88;8.10;;;11.50;99.90;;;;;;4957236;28;20026;-65
2022/11/22 19:39:04;;;;;;;10.10;7.47;;;11.60;99.90;;;;;;4957046;29;20058;-64
2022/11/22 19:41:30;;;;;;;9.50;7.47;;;11.60;99.90;;;;;;4956838;29;20389;-64
2022/11/22 19:43:56;;;;;;;9.23;7.30;;;11.60;99.90;;;;;;4957153;29;20454;-67
2022/11/22 19:46:23;;;;;;;8.65;6.88;;;11.60;99.90;;;;;;4957152;29;20020;-63
2022/11/22 19:48:53;;;;;;;8.20;6.60;;;11.60;99.90;;;;;;4955637;29;20031;-68
2022/11/22 19:51:20;;;;;;;9.18;6.40;;;11.60;99.90;;;;;;4956949;29;20024;-67
2022/11/22 19:53:46;;;;;;;7.28;6.32;;;11.60;99.90;;;;;;4957009;29;20550;-70
2022/11/22 19:56:12;;;;;;;9.45;7.25;;;11.50;99.90;;;;;;4956593;29;20059;-65
2022/11/22 19:58:38;;;;;;;8.68;6.70;;;11.50;99.90;;;;;;4956777;29;20106;-64
2022/11/22 20:01:05;;;;;;;7.68;6.65;;;11.60;99.90;;;;;;4956780;29;20455;-65
2022/11/22 20:03:33;;;;;;;7.20;6.18;;;11.60;99.90;;;;;;4956660;29;20485;-65
2022/11/22 20:06:00;;;;;;;6.82;5.70;;;11.60;99.90;;;;;;4956729;29;20031;-65
2022/11/22 20:08:26;;;;;;;6.90;6.07;;;11.70;99.90;;;;;;4956341;29;20386;-70
2022/11/22 20:10:52;;;;;;;7.97;5.90;;;11.60;99.90;;;;;;4955518;29;20031;-68
2022/11/22 20:13:17;;;;;;;9.02;7.15;;;11.60;99.90;;;;;;4955665;29;20500;-62
2022/11/22 20:15:43;;;;;;;9.85;7.93;;;11.60;99.90;;;;;;4954694;29;20097;-69
2022/11/22 20:18:09;;;;;;;10.88;7.88;;;11.60;99.90;;;;;;4956501;29;20058;-65
2022/11/22 20:20:34;;;;;;;10.88;8.23;;;11.60;99.90;;;;;;4953373;29;20031;-63
2022/11/22 20:23:00;;;;;;;10.55;8.23;;;11.60;99.90;;;;;;4955957;29;20029;-65
2022/11/22 20:25:25;;;;;;;10.20;7.85;;;11.60;99.90;;;;;;4956159;29;20051;-67
2022/11/22 20:27:51;;;;;;;10.85;8.15;;;11.60;99.90;;;;;;4956271;29;20027;-61
2022/11/22 20:30:17;;;;;;;11.43;7.90;;;11.60;99.90;;;;;;4954810;29;20030;-66
2022/11/22 20:32:43;;;;;;;10.68;8.13;;;11.60;99.90;;;;;;4953059;29;20034;-62
2022/11/22 20:35:08;;;;;;;10.57;7.35;;;11.60;99.90;;;;;;4954437;29;20027;-67
2022/11/22 20:37:34;;;;;;;10.02;7.72;;;11.60;99.90;;;;;;4953339;29;20034;-62
2022/11/22 20:40:00;;;;;;;11.70;8.40;;;11.60;99.90;;;;;;4954004;29;20127;-64
2022/11/22 20:42:26;;;;;;;11.10;7.72;;;11.60;99.90;;;;;;4953094;29;20022;-63
2022/11/22 20:44:52;;;;;;;11.45;8.27;;;11.60;99.90;;;;;;4955164;29;20024;-69
2022/11/22 20:47:17;;;;;;;8.57;6.75;;;11.60;99.90;;;;;;4955939;29;20023;-63
2022/11/22 20:49:43;;;;;;;9.80;6.55;;;11.60;99.90;;;;;;4955499;28;20389;-63
2022/11/22 20:52:10;;;;;;;6.63;5.22;;;11.70;99.90;;;;;;4955734;29;20023;-61
2022/11/22 20:54:35;;;;;;;7.43;5.30;;;11.70;99.90;;;;;;4955768;29;20055;-64
2022/11/22 20:57:01;;;;;;;10.00;7.65;;;11.80;99.90;;;;;;4955934;29;20059;-69
2022/11/22 20:59:26;;;;;;;7.75;6.53;;;11.70;99.90;;;;;;4955601;29;20027;-62
2022/11/22 21:01:53;;;;;;;7.40;6.30;;;11.70;99.90;;;;;;4955805;29;20030;-63
2022/11/22 21:04:18;;;;;;;10.13;7.35;;;11.70;99.90;;;;;;4955737;29;20034;-62
2022/11/22 21:06:45;;;;;;;8.57;6.32;;;11.80;99.90;;;;;;4955544;29;20019;-70
2022/11/22 21:09:11;;;;;;;7.65;5.45;;;11.80;99.90;;;;;;4955510;29;20027;-64
2022/11/22 21:11:38;;;;;;;7.18;5.50;;;11.80;99.90;;;;;;4955643;29;20029;-61
2022/11/22 21:14:04;;;;;;;7.70;5.63;;;11.80;99.90;;;;;;4955399;29;20462;-67
2022/11/22 21:16:29;;;;;;;8.88;6.35;;;11.80;99.90;;;;;;4955541;29;20034;-64
2022/11/22 21:19:00;;;;;;;11.77;8.35;;;11.80;99.90;;;;;;4955525;29;20031;-67
2022/11/22 21:21:27;;;;;;;10.65;6.97;;;11.80;99.90;;;;;;4955460;29;20488;-65
2022/11/22 21:23:55;;;;;;;9.75;6.65;;;11.80;99.90;;;;;;4955241;29;20058;-61
2022/11/22 21:26:22;;;;;;;9.63;6.63;;;11.80;99.90;;;;;;4955489;29;20031;-60
2022/11/22 21:28:49;;;;;;;9.48;6.50;;;11.80;99.90;;;;;;4955297;29;20023;-70
2022/11/22 21:31:14;;;;;;;5.28;2.97;;;11.90;99.90;;;;;;4955391;29;20020;-67
2022/11/22 21:33:41;;;;;;;6.57;5.05;;;11.90;99.90;;;;;;4955369;29;20042;-62
2022/11/22 21:36:07;;;;;;;8.60;5.80;;;11.90;99.90;;;;;;4953992;29;20390;-67
2022/11/22 21:38:34;;;;;;;7.47;6.00;;;11.90;99.90;;;;;;4954657;29;20028;-64
2022/11/22 21:41:03;;;;;;;7.53;5.72;;;11.90;99.90;;;;;;4955180;28;20031;-63
2022/11/22 21:43:28;;;;;;;8.65;6.15;;;11.90;99.90;;;;;;4955110;29;20090;-68
2022/11/22 21:45:55;;;;;;;12.05;8.05;;;11.90;99.90;;;;;;4955203;29;20027;-64
2022/11/22 21:48:24;;;;;;;7.93;5.90;;;11.80;99.90;;;;;;4955179;29;20028;-67
2022/11/22 21:50:52;;;;;;;6.47;4.53;;;11.80;99.90;;;;;;4955174;29;20062;-69
2022/11/22 21:53:19;;;;;;;7.53;5.05;;;11.70;99.90;;;;;;4954969;29;20492;-65
2022/11/22 21:55:49;;;;;;;9.45;5.72;;;11.70;99.90;;;;;;4955104;29;20026;-66
2022/11/22 21:58:16;;;;;;;7.43;4.95;;;11.70;99.90;;;;;;4955023;29;20051;-69
2022/11/22 22:00:44;;;;;;;9.65;6.90;;;11.70;99.90;;;;;;4955545;28;20090;-66
2022/11/22 22:03:09;;;;;;;7.97;5.45;;;11.80;99.90;;;;;;4958965;29;20039;-66
2022/11/22 22:05:35;;;;;;;5.47;3.92;;;11.80;99.90;;;;;;4958796;29;20024;-63
2022/11/22 22:08:01;;;;;;;4.82;3.70;;;11.80;99.90;;;;;;4958645;29;20023;-63
2022/11/22 22:10:26;;;;;;;8.23;5.38;;;11.80;99.90;;;;;;4958853;29;20023;-65
2022/11/22 22:12:52;;;;;;;6.03;4.38;;;11.80;99.90;;;;;;4958771;29;20027;-66
2022/11/22 22:15:17;;;;;;;5.60;4.10;;;11.80;99.90;;;;;;4958701;29;20094;-67
2022/11/22 22:17:43;;;;;;;5.65;3.17;;;11.80;99.90;;;;;;4958692;29;20027;-64
2022/11/22 22:20:10;;;;;;;4.50;3.40;;;11.80;99.90;;;;;;4958631;29;20035;-67
2022/11/22 22:22:36;;;;;;;4.35;3.10;;;11.80;99.90;;;;;;4958253;29;20034;-68
2022/11/22 22:25:04;;;;;;;3.45;2.67;;;11.80;99.90;;;;;;4958557;29;20031;-64
2022/11/22 22:27:33;;;;;;;3.45;2.58;;;11.80;99.90;;;;;;4958568;29;20019;-67
2022/11/22 22:29:59;;;;;;;3.53;2.55;;;11.80;99.90;;;;;;4958403;29;20038;-69
2022/11/22 22:32:26;;;;;;;9.27;6.65;;;11.90;99.90;;;;;;4958535;29;20059;-66
2022/11/22 22:34:52;;;;;;;4.78;3.80;;;11.90;99.90;;;;;;4957125;29;20024;-66
2022/11/22 22:37:18;;;;;;;5.93;4.90;;;11.90;99.90;;;;;;4958073;29;20055;-67
